createdAt,value
2023-03-24T00:00:18.747Z,98203.00
2023-03-24T00:02:52.419Z,98206.13
2023-03-24T00:05:25.349Z,98214.34
2023-03-24T00:08:02.062Z,98211.19
2023-03-24T00:10:37.068Z,98204.53
2023-03-24T00:13:10.234Z,98203.75
2023-03-24T00:15:43.211Z,98200.03
2023-03-24T00:18:16.145Z,98205.31
2023-03-24T00:20:49.298Z,98206.66
2023-03-24T00:23:22.531Z,98212.28
2023-03-24T00:26:04.698Z,98208.81
2023-03-24T00:28:39.147Z,98199.75
2023-03-24T00:31:14.764Z,98203.25
2023-03-24T00:33:51.424Z,98195.53
2023-03-24T00:36:26.054Z,98195.88
2023-03-24T00:39:00.363Z,98186.69
2023-03-24T00:41:35.513Z,98191.97
2023-03-24T00:44:08.404Z,98188.09
2023-03-24T00:46:46.110Z,98177.19
2023-03-24T00:49:26.194Z,98173.75
2023-03-24T00:51:59.230Z,98169.88
2023-03-24T00:54:32.148Z,98177.88
2023-03-24T00:57:07.345Z,98167.59
2023-03-24T00:59:49.176Z,98159.66
2023-03-24T01:02:24.943Z,98144.00
2023-03-24T01:05:00.051Z,98148.66
2023-03-24T01:07:33.653Z,98144.13
2023-03-24T01:10:08.584Z,98150.81
2023-03-24T01:12:43.101Z,98151.13
2023-03-24T01:15:18.656Z,98153.75
2023-03-24T01:17:53.424Z,98144.91
2023-03-24T01:20:27.018Z,98145.09
2023-03-24T01:23:06.343Z,98144.25
2023-03-24T01:25:48.196Z,98125.72
2023-03-24T01:28:25.127Z,98121.03
2023-03-24T01:30:58.720Z,98113.59
2023-03-24T01:33:35.857Z,98120.09
2023-03-24T01:36:09.445Z,98115.88
2023-03-24T01:38:42.491Z,98109.00
2023-03-24T01:41:15.653Z,98099.66
2023-03-24T01:43:50.190Z,98105.91
2023-03-24T01:46:24.379Z,98096.38
2023-03-24T01:49:01.247Z,98092.03
2023-03-24T01:51:37.663Z,98084.97
2023-03-24T01:54:16.183Z,98080.97
2023-03-24T01:56:54.997Z,98073.25
2023-03-24T01:59:33.093Z,98073.75
2023-03-24T02:02:22.070Z,98070.88
2023-03-24T02:05:03.489Z,98069.56
2023-03-24T02:07:52.478Z,98066.94
2023-03-24T02:10:26.494Z,98054.22
2023-03-24T02:12:59.383Z,98045.31
2023-03-24T02:15:36.993Z,98043.00
2023-03-24T02:18:19.177Z,98041.25
2023-03-24T02:21:52.320Z,98031.78
2023-03-24T02:24:59.134Z,98030.69
2023-03-24T02:27:57.648Z,98028.19
2023-03-24T02:30:48.040Z,98024.50
2023-03-24T02:33:47.869Z,98019.66
2023-03-24T02:36:42.826Z,98017.38
2023-03-24T02:39:38.317Z,98021.53
2023-03-24T02:42:22.106Z,98025.03
2023-03-24T02:45:05.949Z,98022.06
2023-03-24T02:47:47.320Z,98026.06
2023-03-24T02:50:30.034Z,98013.44
2023-03-24T02:53:13.057Z,98011.63
2023-03-24T02:56:12.751Z,98011.28
2023-03-24T02:58:50.086Z,98010.53
2023-03-24T03:01:31.787Z,98005.88
2023-03-24T03:04:20.075Z,98005.88
2023-03-24T03:06:58.813Z,97998.59
2023-03-24T03:09:32.044Z,97999.50
2023-03-24T03:12:11.145Z,97990.66
2023-03-24T03:14:49.460Z,97992.88
2023-03-24T03:17:28.499Z,97991.47
2023-03-24T03:20:08.485Z,97990.06
2023-03-24T03:22:46.755Z,97993.06
2023-03-24T03:25:23.943Z,97994.91
2023-03-24T03:28:02.315Z,97991.59
2023-03-24T03:30:39.093Z,97993.22
2023-03-24T03:33:18.224Z,97996.28
2023-03-24T03:35:55.487Z,98001.50
2023-03-24T03:38:36.837Z,97987.97
2023-03-24T03:41:10.345Z,97985.81
2023-03-24T03:43:47.143Z,97989.50
2023-03-24T03:46:20.894Z,97984.78
2023-03-24T03:48:55.533Z,97985.94
2023-03-24T03:51:29.049Z,97983.91
2023-03-24T03:54:06.934Z,97977.69
2023-03-24T03:56:41.200Z,97969.28
2023-03-24T03:59:28.579Z,97965.53
2023-03-24T04:02:13.964Z,97964.38
2023-03-24T04:05:14.223Z,97958.84
2023-03-24T04:08:08.409Z,97959.63
2023-03-24T04:11:32.783Z,97965.44
2023-03-24T04:14:49.946Z,97970.78
2023-03-24T04:18:01.955Z,97967.28
2023-03-24T04:21:21.254Z,97961.84
2023-03-24T04:24:03.625Z,97971.34
2023-03-24T04:26:46.406Z,97963.81
2023-03-24T04:29:30.044Z,97963.44
2023-03-24T04:32:11.259Z,97972.66
2023-03-24T04:34:50.874Z,97961.00
2023-03-24T04:37:51.325Z,97960.47
2023-03-24T04:40:33.356Z,97957.03
2023-03-24T04:43:09.499Z,97954.44
2023-03-24T04:45:42.946Z,97960.19
2023-03-24T04:48:48.331Z,97953.28
2023-03-24T04:51:29.344Z,97951.75
2023-03-24T04:54:24.374Z,97947.38
2023-03-24T04:57:02.984Z,97949.81
2023-03-24T04:59:56.843Z,97948.06
2023-03-24T05:02:29.779Z,97956.03
2023-03-24T05:05:12.868Z,97958.84
2023-03-24T05:07:50.540Z,97959.53
2023-03-24T05:10:23.657Z,97972.13
2023-03-24T05:13:00.739Z,97973.88
2023-03-24T05:15:54.346Z,97969.16
2023-03-24T05:18:42.998Z,97984.16
2023-03-24T05:21:17.430Z,97988.41
2023-03-24T05:23:50.450Z,97984.94
2023-03-24T05:26:23.434Z,97984.25
2023-03-24T05:29:09.891Z,98001.22
2023-03-24T05:31:44.753Z,98011.00
2023-03-24T05:34:22.828Z,98024.56
2023-03-24T05:37:13.288Z,98018.47
2023-03-24T05:39:46.560Z,98035.81
2023-03-24T05:42:35.017Z,98040.75
2023-03-24T05:45:11.714Z,98049.00
2023-03-24T05:47:45.332Z,98055.19
2023-03-24T05:50:18.896Z,98057.91
2023-03-24T05:52:53.660Z,98063.25
2023-03-24T05:55:41.833Z,98053.25
2023-03-24T05:58:35.367Z,98066.97
2023-03-24T06:01:10.294Z,98075.59
2023-03-24T06:03:44.140Z,98072.84
2023-03-24T06:06:20.504Z,98079.66
2023-03-24T06:08:58.476Z,98089.34
2023-03-24T06:11:32.609Z,98096.84
2023-03-24T06:14:11.233Z,98101.94
2023-03-24T06:16:59.356Z,98102.53
2023-03-24T06:19:34.022Z,98098.06
2023-03-24T06:22:22.772Z,98090.66
2023-03-24T06:24:58.817Z,98086.34
2023-03-24T06:27:33.809Z,98093.34
2023-03-24T06:30:08.680Z,98087.78
2023-03-24T06:32:42.126Z,98092.91
2023-03-24T06:35:15.848Z,98093.31
2023-03-24T06:38:04.643Z,98091.88
2023-03-24T06:40:39.045Z,98096.59
2023-03-24T06:43:13.177Z,98088.38
2023-03-24T06:45:48.671Z,98096.16
2023-03-24T06:48:28.325Z,98095.41
2023-03-24T06:51:08.815Z,98096.19
2023-03-24T06:53:44.018Z,98087.78
2023-03-24T06:56:21.117Z,98077.22
2023-03-24T06:59:00.050Z,98070.19
2023-03-24T07:01:38.147Z,98074.84
2023-03-24T07:04:20.916Z,98077.97
2023-03-24T07:07:30.861Z,98075.63
2023-03-24T07:10:21.942Z,98083.53
2023-03-24T07:12:57.550Z,98082.44
2023-03-24T07:15:30.890Z,98073.59
2023-03-24T07:18:04.076Z,98077.13
2023-03-24T07:20:46.894Z,98085.59
2023-03-24T07:23:22.479Z,98091.00
2023-03-24T07:26:03.048Z,98086.34
2023-03-24T07:28:56.001Z,98094.44
2023-03-24T07:31:40.902Z,98102.34
2023-03-24T07:34:16.863Z,98110.44
2023-03-24T07:36:49.966Z,98107.31
2023-03-24T07:39:23.353Z,98111.41
2023-03-24T07:41:57.063Z,98118.53
2023-03-24T07:44:44.575Z,98124.59
2023-03-24T07:47:18.829Z,98124.00
2023-03-24T07:49:53.344Z,98125.53
2023-03-24T07:52:26.473Z,98135.16
2023-03-24T07:55:01.589Z,98135.16
2023-03-24T07:57:52.508Z,98141.22
2023-03-24T08:00:27.056Z,98128.75
2023-03-24T08:03:15.644Z,98123.84
2023-03-24T08:05:55.225Z,98125.41
2023-03-24T08:08:38.094Z,98132.59
2023-03-24T08:11:10.838Z,98121.03
2023-03-24T08:13:43.967Z,98121.66
2023-03-24T08:16:18.179Z,98120.66
2023-03-24T08:18:51.083Z,98122.38
2023-03-24T08:21:24.128Z,98119.00
2023-03-24T08:23:56.993Z,98121.06
2023-03-24T08:26:31.162Z,98120.97
2023-03-24T08:29:04.596Z,98120.75
2023-03-24T08:31:39.284Z,98123.97
2023-03-24T08:34:12.417Z,98126.44
2023-03-24T08:36:45.285Z,98115.44
2023-03-24T08:39:18.300Z,98115.84
2023-03-24T08:41:51.498Z,98106.50
2023-03-24T08:44:24.481Z,98104.19
2023-03-24T08:46:58.653Z,98116.84
2023-03-24T08:49:31.484Z,98102.91
2023-03-24T08:52:05.148Z,98103.38
2023-03-24T08:54:38.162Z,98093.31
2023-03-24T08:57:10.928Z,98106.69
2023-03-24T08:59:44.037Z,98103.66
2023-03-24T09:02:18.799Z,98106.31
2023-03-24T09:04:54.600Z,98099.31
2023-03-24T09:07:41.279Z,98113.13
2023-03-24T09:10:48.345Z,98131.13
2023-03-24T09:13:29.576Z,98120.69
2023-03-24T09:16:35.365Z,98114.41
2023-03-24T09:19:39.207Z,98115.88
2023-03-24T09:22:48.412Z,98118.13
2023-03-24T09:25:56.347Z,98120.34
2023-03-24T09:28:57.751Z,98110.06
2023-03-24T09:32:06.452Z,98127.41
2023-03-24T09:35:10.575Z,98113.06
2023-03-24T09:38:12.634Z,98122.28
2023-03-24T09:41:34.380Z,98120.69
2023-03-24T09:44:41.259Z,98109.66
2023-03-24T09:47:41.296Z,98112.56
2023-03-24T09:50:33.310Z,98107.03
2023-03-24T09:53:21.625Z,98103.84
2023-03-24T09:56:18.305Z,98097.03
2023-03-24T09:59:19.293Z,98115.53
2023-03-24T10:02:07.315Z,98100.81
2023-03-24T10:04:48.404Z,98123.56
2023-03-24T10:07:45.441Z,98119.34
2023-03-24T10:10:42.408Z,98118.16
2023-03-24T10:13:40.482Z,98110.28
2023-03-24T10:16:29.534Z,98125.78
2023-03-24T10:19:25.549Z,98117.78
2023-03-24T10:22:20.308Z,98124.28
2023-03-24T10:25:20.480Z,98115.59
2023-03-24T10:28:06.566Z,98108.97
2023-03-24T10:30:57.531Z,98116.78
2023-03-24T10:33:39.408Z,98114.63
2023-03-24T10:36:29.284Z,98115.38
2023-03-24T10:39:19.003Z,98109.63
2023-03-24T10:42:12.318Z,98109.69
2023-03-24T10:44:54.567Z,98113.63
2023-03-24T10:47:43.344Z,98101.84
2023-03-24T10:50:50.479Z,98112.50
2023-03-24T10:53:52.278Z,98111.13
2023-03-24T10:57:02.407Z,98108.06
2023-03-24T10:59:55.308Z,98112.78
2023-03-24T11:02:31.717Z,98110.66
2023-03-24T11:05:16.940Z,98106.88
2023-03-24T11:07:52.065Z,98100.38
2023-03-24T11:10:26.552Z,98106.31
2023-03-24T11:13:05.312Z,98106.56
2023-03-24T11:15:53.285Z,98113.47
2023-03-24T11:18:26.229Z,98109.69
2023-03-24T11:21:01.017Z,98106.75
2023-03-24T11:23:35.628Z,98103.16
2023-03-24T11:26:14.852Z,98110.28
2023-03-24T11:28:52.916Z,98114.25
2023-03-24T11:31:30.884Z,98121.13
2023-03-24T11:34:09.537Z,98121.13
2023-03-24T11:36:47.562Z,98125.09
2023-03-24T11:39:23.937Z,98126.16
2023-03-24T11:42:15.535Z,98139.09
2023-03-24T11:44:51.342Z,98132.97
2023-03-24T11:47:32.090Z,98135.88
2023-03-24T11:50:19.055Z,98151.13
2023-03-24T11:52:55.929Z,98132.63
2023-03-24T11:55:35.783Z,98131.78
2023-03-24T11:58:17.360Z,98132.47
2023-03-24T12:00:56.109Z,98146.13
2023-03-24T12:03:56.849Z,98143.31
2023-03-24T12:06:42.952Z,98138.19
2023-03-24T12:09:23.736Z,98144.38
2023-03-24T12:12:13.709Z,98154.66
2023-03-24T12:15:07.827Z,98154.38
2023-03-24T12:17:54.663Z,98145.44
2023-03-24T12:20:34.160Z,98130.06
2023-03-24T12:23:13.829Z,98138.78
2023-03-24T12:26:12.187Z,98133.69
2023-03-24T12:28:55.960Z,98143.31
2023-03-24T12:31:47.528Z,98133.66
2023-03-24T12:34:57.307Z,98134.53
2023-03-24T12:37:39.227Z,98126.06
2023-03-24T12:40:51.367Z,98126.81
2023-03-24T12:43:36.987Z,98135.06
2023-03-24T12:46:25.142Z,98144.16
2023-03-24T12:49:18.567Z,98143.75
2023-03-24T12:52:15.059Z,98136.63
2023-03-24T12:55:00.807Z,98145.94
2023-03-24T12:57:38.891Z,98154.50
2023-03-24T13:00:23.234Z,98176.38
2023-03-24T13:02:59.447Z,98154.16
2023-03-24T13:05:36.439Z,98182.69
2023-03-24T13:08:17.658Z,98182.41
2023-03-24T13:10:55.712Z,98191.13
2023-03-24T13:13:32.772Z,98169.47
2023-03-24T13:16:10.733Z,98159.66
2023-03-24T13:18:48.322Z,98158.56
2023-03-24T13:21:23.511Z,98162.16
2023-03-24T13:24:00.366Z,98161.72
2023-03-24T13:26:40.110Z,98174.63
2023-03-24T13:29:38.431Z,98170.72
2023-03-24T13:32:30.145Z,98159.69
2023-03-24T13:35:12.874Z,98161.38
2023-03-24T13:37:49.765Z,98164.06
2023-03-24T13:40:26.238Z,98172.09
2023-03-24T13:43:02.055Z,98172.13
2023-03-24T13:45:41.718Z,98166.19
2023-03-24T13:48:25.167Z,98162.56
2023-03-24T13:51:01.377Z,98161.91
2023-03-24T13:53:39.569Z,98160.66
2023-03-24T13:56:22.706Z,98157.81
2023-03-24T13:59:26.037Z,98152.38
2023-03-24T14:02:23.691Z,98155.91
2023-03-24T14:05:07.818Z,98152.97
2023-03-24T14:07:50.031Z,98154.16
2023-03-24T14:10:45.839Z,98147.78
2023-03-24T14:13:37.053Z,98150.97
2023-03-24T14:16:37.524Z,98135.31
2023-03-24T14:19:24.510Z,98132.31
2023-03-24T14:22:11.907Z,98132.06
2023-03-24T14:24:47.111Z,98127.72
2023-03-24T14:27:35.953Z,98134.19
2023-03-24T14:30:20.344Z,98130.25
2023-03-24T14:32:57.097Z,98162.81
2023-03-24T14:35:37.155Z,98167.84
2023-03-24T14:38:23.547Z,98148.59
2023-03-24T14:40:59.368Z,98158.06
2023-03-24T14:43:58.698Z,98115.34
2023-03-24T14:46:43.049Z,98138.50
2023-03-24T14:49:24.508Z,98143.03
2023-03-24T14:52:10.717Z,98141.22
2023-03-24T14:54:47.388Z,98147.00
2023-03-24T14:57:24.858Z,98152.53
2023-03-24T15:00:11.039Z,98155.69
2023-03-24T15:02:49.312Z,98153.19
2023-03-24T15:05:26.194Z,98141.28
2023-03-24T15:08:13.820Z,98147.47
2023-03-24T15:10:50.983Z,98146.31
2023-03-24T15:13:32.395Z,98153.09
2023-03-24T15:16:18.243Z,98157.44
2023-03-24T15:19:01.366Z,98158.03
2023-03-24T15:21:37.462Z,98155.81
2023-03-24T15:24:28.302Z,98174.34
2023-03-24T15:27:34.525Z,98160.06
2023-03-24T15:30:15.110Z,98156.41
2023-03-24T15:32:50.525Z,98164.19
2023-03-24T15:35:24.835Z,98161.97
2023-03-24T15:37:58.313Z,98153.47
2023-03-24T15:40:40.557Z,98148.16
2023-03-24T15:43:20.349Z,98149.00
2023-03-24T15:46:04.712Z,98148.63
2023-03-24T15:48:47.690Z,98135.25
2023-03-24T15:51:21.069Z,98146.38
2023-03-24T15:53:58.250Z,98155.34
2023-03-24T15:56:34.312Z,98151.84
2023-03-24T15:59:16.219Z,98150.59
2023-03-24T16:01:50.326Z,98149.66
2023-03-24T16:04:24.647Z,98143.78
2023-03-24T16:06:58.630Z,98144.72
2023-03-24T16:09:39.075Z,98146.44
2023-03-24T16:12:12.585Z,98147.34
2023-03-24T16:14:45.851Z,98144.56
2023-03-24T16:17:18.861Z,98146.28
2023-03-24T16:19:53.099Z,98138.66
2023-03-24T16:22:26.168Z,98147.84
2023-03-24T16:24:59.060Z,98145.38
2023-03-24T16:27:31.923Z,98141.28
2023-03-24T16:30:18.783Z,98138.19
2023-03-24T16:32:51.672Z,98132.91
2023-03-24T16:35:26.968Z,98138.34
2023-03-24T16:37:59.956Z,98133.22
2023-03-24T16:40:38.539Z,98134.00
2023-03-24T16:43:11.541Z,98132.75
2023-03-24T16:45:44.906Z,98129.78
2023-03-24T16:48:18.601Z,98129.94
2023-03-24T16:50:53.629Z,98138.78
2023-03-24T16:53:26.491Z,98141.13
2023-03-24T16:55:59.467Z,98151.19
2023-03-24T16:58:32.544Z,98151.38
2023-03-24T17:01:26.763Z,98145.94
2023-03-24T17:04:01.882Z,98155.56
2023-03-24T17:06:37.945Z,98159.94
2023-03-24T17:09:12.615Z,98163.94
2023-03-24T17:11:49.860Z,98165.34
2023-03-24T17:14:23.094Z,98152.63
2023-03-24T17:16:56.043Z,98163.00
2023-03-24T17:19:28.952Z,98172.63
2023-03-24T17:22:05.555Z,98169.84
2023-03-24T17:24:41.734Z,98168.03
2023-03-24T17:27:18.823Z,98162.38
2023-03-24T17:29:51.734Z,98161.75
2023-03-24T17:32:31.935Z,98162.84
2023-03-24T17:35:05.379Z,98167.78
2023-03-24T17:37:39.759Z,98170.09
2023-03-24T17:40:14.138Z,98164.50
2023-03-24T17:42:47.874Z,98168.47
2023-03-24T17:45:21.117Z,98156.59
2023-03-24T17:47:55.002Z,98157.03
2023-03-24T17:50:29.965Z,98155.88
2023-03-24T17:53:04.194Z,98161.47
2023-03-24T17:55:37.061Z,98158.50
2023-03-24T17:58:10.215Z,98162.09
2023-03-24T18:00:43.353Z,98170.06
2023-03-24T18:03:16.857Z,98166.50
2023-03-24T18:05:50.075Z,98165.00
2023-03-24T18:08:24.312Z,98169.50
2023-03-24T18:11:04.663Z,98166.53
2023-03-24T18:13:38.153Z,98176.41
2023-03-24T18:16:21.187Z,98168.34
2023-03-24T18:18:55.040Z,98178.59
2023-03-24T18:21:28.535Z,98177.97
2023-03-24T18:24:03.177Z,98192.38
2023-03-24T18:26:36.134Z,98191.25
2023-03-24T18:29:08.996Z,98183.22
2023-03-24T18:31:41.954Z,98197.00
2023-03-24T18:34:14.976Z,98179.25
2023-03-24T18:36:48.386Z,98186.06
2023-03-24T18:39:22.759Z,98188.00
2023-03-24T18:41:55.981Z,98188.47
2023-03-24T18:44:28.840Z,98195.63
2023-03-24T18:47:01.943Z,98193.41
2023-03-24T18:49:34.726Z,98206.03
2023-03-24T18:52:09.612Z,98195.97
2023-03-24T18:54:44.053Z,98206.22
2023-03-24T18:57:17.436Z,98203.19
2023-03-24T18:59:50.663Z,98206.22
2023-03-24T19:02:23.571Z,98201.75
2023-03-24T19:04:56.472Z,98203.56
2023-03-24T19:07:29.416Z,98207.00
2023-03-24T19:10:05.366Z,98205.91
2023-03-24T19:12:38.453Z,98208.25
2023-03-24T19:15:13.673Z,98213.31
2023-03-24T19:17:46.645Z,98210.66
2023-03-24T19:20:19.523Z,98217.28
2023-03-24T19:22:52.692Z,98219.22
2023-03-24T19:25:27.010Z,98219.06
2023-03-24T19:27:59.808Z,98225.13
2023-03-24T19:30:32.645Z,98228.22
2023-03-24T19:33:05.671Z,98226.13
2023-03-24T19:35:38.578Z,98232.06
2023-03-24T19:38:11.829Z,98229.59
2023-03-24T19:40:46.544Z,98234.31
2023-03-24T19:43:19.492Z,98237.44
2023-03-24T19:45:52.510Z,98231.97
2023-03-24T19:48:25.438Z,98238.91
2023-03-24T19:50:58.500Z,98239.47
2023-03-24T19:53:31.792Z,98240.34
2023-03-24T19:56:06.783Z,98246.59
2023-03-24T19:58:39.812Z,98246.00
2023-03-24T20:01:13.105Z,98251.50
2023-03-24T20:03:46.367Z,98257.78
2023-03-24T20:06:19.901Z,98258.34
2023-03-24T20:08:52.976Z,98258.34
2023-03-24T20:11:27.363Z,98250.63
2023-03-24T20:14:00.829Z,98251.97
2023-03-24T20:16:34.087Z,98251.31
2023-03-24T20:19:06.896Z,98252.50
2023-03-24T20:21:39.708Z,98248.63
2023-03-24T20:24:14.750Z,98250.84
2023-03-24T20:26:49.148Z,98253.31
2023-03-24T20:29:22.119Z,98254.53
2023-03-24T20:31:55.428Z,98255.31
2023-03-24T20:34:28.781Z,98258.88
2023-03-24T20:37:01.669Z,98254.28
2023-03-24T20:39:34.539Z,98251.41
2023-03-24T20:42:08.652Z,98248.16
2023-03-24T20:44:41.788Z,98240.81
2023-03-24T20:47:14.620Z,98240.81
2023-03-24T20:49:47.428Z,98238.13
2023-03-24T20:52:23.093Z,98237.22
2023-03-24T20:54:56.828Z,98235.09
2023-03-24T20:57:31.653Z,98240.13
2023-03-24T21:00:13.448Z,98240.47
2023-03-24T21:02:46.793Z,98238.56
2023-03-24T21:05:19.656Z,98234.78
2023-03-24T21:07:52.483Z,98239.22
2023-03-24T21:10:25.389Z,98232.09
2023-03-24T21:12:59.557Z,98241.69
2023-03-24T21:15:32.759Z,98236.56
2023-03-24T21:18:06.827Z,98234.44
2023-03-24T21:20:42.417Z,98239.03
2023-03-24T21:23:18.513Z,98237.78
2023-03-24T21:25:52.215Z,98241.91
2023-03-24T21:28:30.372Z,98238.66
2023-03-24T21:31:09.324Z,98254.19
2023-03-24T21:33:43.515Z,98253.16
2023-03-24T21:36:17.310Z,98262.34
2023-03-24T21:38:52.386Z,98263.34
2023-03-24T21:41:25.482Z,98263.91
2023-03-24T21:44:00.456Z,98282.44
2023-03-24T21:46:33.469Z,98281.31
2023-03-24T21:49:06.509Z,98294.25
2023-03-24T21:51:42.825Z,98329.09
2023-03-24T21:54:16.230Z,98342.28
2023-03-24T21:56:49.115Z,98331.09
2023-03-24T21:59:23.308Z,98344.22
2023-03-24T22:01:57.386Z,98352.00
2023-03-24T22:04:30.135Z,98327.19
2023-03-24T22:07:06.408Z,98320.22
2023-03-24T22:09:39.218Z,98289.00
2023-03-24T22:12:12.183Z,98247.69
2023-03-24T22:14:47.687Z,98248.69
2023-03-24T22:17:20.819Z,98266.47
2023-03-24T22:19:53.852Z,98283.28
2023-03-24T22:22:27.359Z,98296.91
2023-03-24T22:25:00.662Z,98303.44
2023-03-24T22:27:34.026Z,98308.31
2023-03-24T22:30:11.122Z,98315.28
2023-03-24T22:32:43.986Z,98315.41
2023-03-24T22:35:17.245Z,98326.13
2023-03-24T22:37:50.125Z,98306.22
2023-03-24T22:40:23.018Z,98278.50
2023-03-24T22:42:55.918Z,98278.91
2023-03-24T22:45:30.617Z,98273.59
2023-03-24T22:48:03.679Z,98280.56
2023-03-24T22:50:36.650Z,98282.59
2023-03-24T22:53:09.916Z,98278.38
2023-03-24T22:55:44.778Z,98278.75
2023-03-24T22:58:17.939Z,98273.00
2023-03-24T23:00:56.003Z,98277.16
2023-03-24T23:03:29.299Z,98281.47
2023-03-24T23:06:03.267Z,98283.72
2023-03-24T23:08:37.659Z,98289.63
2023-03-24T23:11:12.357Z,98285.19
2023-03-24T23:13:46.801Z,98280.34
2023-03-24T23:16:22.208Z,98294.00
2023-03-24T23:18:56.050Z,98296.31
2023-03-24T23:21:29.841Z,98297.38
2023-03-24T23:24:03.270Z,98291.81
2023-03-24T23:26:36.772Z,98296.59
2023-03-24T23:29:11.465Z,98289.72
2023-03-24T23:31:45.824Z,98280.00
2023-03-24T23:34:19.392Z,98265.28
2023-03-24T23:36:52.670Z,98269.38
2023-03-24T23:39:26.618Z,98269.66
2023-03-24T23:42:00.031Z,98281.72
2023-03-24T23:44:33.175Z,98278.16
2023-03-24T23:47:07.465Z,98280.41
2023-03-24T23:49:42.319Z,98283.38
2023-03-24T23:52:15.095Z,98290.06
2023-03-24T23:54:51.340Z,98306.69
2023-03-24T23:57:24.208Z,98294.25
2023-03-24T23:59:57.146Z,98283.53
